Time;durP1;ratioP1;P1;durP2;ratioP2;P2;SDS_P1;SDS_P2;PMS_P1;PMS_P2;Temp;Humidity;BMP_temperature;BMP_pressure;BME280_temperature;BME280_humidity;BME280_pressure;Samples;Min_cycle;Max_cycle;Signal;HPM_P1;HPM_P2
2021/06/14 00:00:15;;;;;;;6.05;4.00;;;;;;;15.31;57.60;102012.38;702255;28;43427;-63
2021/06/14 00:00:37;;;;;;;7.03;4.30;;;;;;;15.30;57.33;102016.13;702589;28;4192;-62
2021/06/14 00:00:59;;;;;;;6.72;4.28;;;;;;;15.29;57.67;102010.88;698571;28;22330;-63
2021/06/14 00:01:20;;;;;;;8.88;4.30;;;;;;;15.28;57.70;102020.03;697746;28;45232;-63
2021/06/14 00:01:41;;;;;;;6.95;4.57;;;;;;;15.27;57.46;102012.91;699040;28;24281;-63
2021/06/14 00:02:02;;;;;;;6.20;4.43;;;;;;;15.25;57.85;102007.66;699580;28;23443;-63
2021/06/14 00:02:23;;;;;;;5.75;3.90;;;;;;;15.25;57.52;102014.94;698789;28;44363;-63
2021/06/14 00:02:46;;;;;;;8.25;4.10;;;;;;;15.23;57.52;102015.13;699866;28;23429;-62
2021/06/14 00:03:07;;;;;;;8.25;4.18;;;;;;;15.23;57.76;102019.72;699745;28;69492;-62
2021/06/14 00:03:28;;;;;;;8.95;4.35;;;;;;;15.21;58.23;102013.63;701947;28;23425;-62
2021/06/14 00:03:50;;;;;;;7.57;4.18;;;;;;;15.20;57.94;102010.03;701554;28;23193;-63
2021/06/14 00:04:12;;;;;;;6.65;4.00;;;;;;;15.18;57.91;102003.94;700874;28;23287;-63
2021/06/14 00:04:33;;;;;;;7.85;4.00;;;;;;;15.18;57.79;101998.50;701426;28;45249;-63
2021/06/14 00:04:54;;;;;;;6.93;4.15;;;;;;;15.17;58.12;102004.94;701922;28;21519;-62
2021/06/14 00:05:22;;;;;;;7.38;4.43;;;;;;;15.14;58.31;102014.34;699047;28;22335;-62
2021/06/14 00:05:44;;;;;;;6.03;4.00;;;;;;;15.14;58.05;102010.78;696420;28;104627;-63
2021/06/14 00:06:06;;;;;;;7.22;4.65;;;;;;;15.12;58.23;102010.94;698916;28;39393;-62
2021/06/14 00:06:27;;;;;;;9.50;6.07;;;;;;;15.12;58.32;102015.53;695471;28;44514;-63
2021/06/14 00:06:48;;;;;;;9.43;5.32;;;;;;;15.11;58.07;102008.41;696733;28;22483;-63
2021/06/14 00:07:10;;;;;;;7.00;4.95;;;;;;;15.10;58.50;102006.69;697633;28;21593;-62
2021/06/14 00:07:31;;;;;;;7.05;4.80;;;;;;;15.11;58.63;102005.69;698526;28;44415;-62
2021/06/14 00:07:52;;;;;;;8.15;5.22;;;;;;;15.10;58.35;102003.97;699280;28;22414;-63
2021/06/14 00:08:15;;;;;;;6.00;4.57;;;;;;;15.10;58.46;102004.81;700123;28;20574;-62
2021/06/14 00:08:40;;;;;;;9.35;7.47;;;;;;;15.09;58.16;102002.25;697362;28;65798;-63
2021/06/14 00:09:03;;;;;;;11.25;9.35;;;;;;;15.07;58.17;102010.59;695826;28;115194;-63
2021/06/14 00:09:25;;;;;;;9.60;7.80;;;;;;;15.08;58.13;102008.75;697830;28;69387;-64
2021/06/14 00:09:46;;;;;;;8.10;6.85;;;;;;;15.06;58.55;102008.06;698464;28;44670;-63
2021/06/14 00:10:09;;;;;;;7.63;6.80;;;;;;;15.05;58.25;102007.22;698704;28;22332;-63
2021/06/14 00:10:32;;;;;;;7.47;6.72;;;;;;;15.02;58.68;102013.00;700351;28;25262;-62
2021/06/14 00:10:55;;;;;;;9.23;8.33;;;;;;;15.02;58.48;102006.72;699875;28;92235;-63
2021/06/14 00:11:18;;;;;;;8.32;6.72;;;;;;;15.02;58.38;102012.19;700292;28;90986;-62
2021/06/14 00:11:39;;;;;;;8.23;7.43;;;;;;;15.00;58.43;102008.75;699497;28;69317;-63
2021/06/14 00:12:02;;;;;;;8.40;7.55;;;;;;;14.98;58.69;102013.53;699050;28;23478;-63
2021/06/14 00:12:23;;;;;;;7.40;5.22;;;;;;;14.96;58.57;102011.81;698584;28;46454;-63
2021/06/14 00:12:44;;;;;;;6.25;4.47;;;;;;;14.96;58.63;102005.53;698149;28;22120;-63
2021/06/14 00:13:06;;;;;;;7.38;4.43;;;;;;;14.95;58.45;102009.28;699218;28;35472;-62
2021/06/14 00:13:28;;;;;;;7.28;4.50;;;;;;;14.93;58.69;102008.63;698122;28;45356;-63
2021/06/14 00:13:50;;;;;;;8.20;4.45;;;;;;;14.93;58.90;102005.91;699353;28;33431;-62
2021/06/14 00:14:11;;;;;;;9.00;4.47;;;;;;;14.91;58.54;102006.06;699303;28;38236;-63
2021/06/14 00:14:32;;;;;;;7.03;4.22;;;;;;;14.92;58.86;102004.19;701031;28;22321;-63
2021/06/14 00:14:53;;;;;;;9.77;4.80;;;;;;;14.92;58.71;102015.06;701063;28;21558;-61
2021/06/14 00:15:15;;;;;;;7.05;4.18;;;;;;;14.90;58.68;102007.09;701662;28;21554;-62
2021/06/14 00:15:39;;;;;;;7.45;3.88;;;;;;;14.90;58.87;102004.38;701746;28;46350;-62
2021/06/14 00:16:00;;;;;;;7.72;4.15;;;;;;;14.89;58.75;102004.53;702830;28;12789;-63
2021/06/14 00:16:22;;;;;;;6.32;4.38;;;;;;;14.90;58.78;102004.38;702750;28;8675;-63
2021/06/14 00:16:44;;;;;;;5.43;4.30;;;;;;;14.90;59.05;101998.09;701590;28;41771;-62
2021/06/14 00:17:06;;;;;;;5.78;4.25;;;;;;;14.91;59.18;102002.50;699845;28;12633;-63
2021/06/14 00:17:27;;;;;;;6.57;4.30;;;;;;;14.91;59.10;102007.94;698229;28;58597;-63
2021/06/14 00:17:48;;;;;;;8.05;4.65;;;;;;;14.90;58.73;102003.53;696030;28;21559;-62
2021/06/14 00:18:10;;;;;;;8.18;4.38;;;;;;;14.89;58.76;102005.41;696671;28;22065;-63
2021/06/14 00:18:32;;;;;;;6.53;4.05;;;;;;;14.89;59.41;102002.69;693830;28;22190;-63
2021/06/14 00:18:54;;;;;;;8.82;4.70;;;;;;;14.88;59.27;102006.41;692612;28;67504;-62
2021/06/14 00:19:15;;;;;;;7.18;4.00;;;;;;;14.89;59.20;102005.41;695857;28;46757;-63
2021/06/14 00:19:36;;;;;;;5.13;4.00;;;;;;;14.88;59.08;102005.59;696814;28;17857;-63
2021/06/14 00:19:57;;;;;;;6.03;4.03;;;;;;;14.88;59.25;102006.41;699406;28;22513;-63
2021/06/14 00:20:20;;;;;;;5.55;4.22;;;;;;;14.88;59.17;102006.41;699515;28;5406;-62
2021/06/14 00:20:45;;;;;;;5.80;3.92;;;;;;;14.87;59.20;102018.31;697974;28;43120;-61
2021/06/14 00:21:09;;;;;;;7.35;4.30;;;;;;;14.86;59.14;102013.91;696073;28;120131;-63
2021/06/14 00:21:30;;;;;;;7.20;4.45;;;;;;;14.84;58.79;102005.06;697973;28;69505;-62
2021/06/14 00:21:52;;;;;;;6.13;4.10;;;;;;;14.85;58.77;102006.78;699243;28;23459;-63
2021/06/14 00:22:16;;;;;;;8.68;4.47;;;;;;;14.84;59.28;101998.78;699909;28;19302;-63
2021/06/14 00:22:38;;;;;;;6.90;4.13;;;;;;;14.81;59.12;102013.59;697427;28;85119;-62
2021/06/14 00:23:00;;;;;;;6.93;3.90;;;;;;;14.79;59.25;102012.91;700323;28;1308;-62
2021/06/14 00:23:23;;;;;;;5.50;4.00;;;;;;;14.77;58.94;102007.63;699889;28;23508;-63
2021/06/14 00:23:44;;;;;;;5.82;4.25;;;;;;;14.77;59.48;102012.25;698509;28;64793;-62
2021/06/14 00:24:06;;;;;;;7.00;4.25;;;;;;;14.77;59.44;102009.53;699663;28;15110;-62
2021/06/14 00:24:27;;;;;;;6.35;4.40;;;;;;;14.75;59.42;102006.13;699281;28;38844;-62
2021/06/14 00:24:49;;;;;;;7.07;4.40;;;;;;;14.74;59.38;102010.69;698575;28;23543;-62
2021/06/14 00:25:13;;;;;;;6.68;3.90;;;;;;;14.72;59.63;102009.19;698942;28;46331;-63
2021/06/14 00:25:35;;;;;;;6.28;4.35;;;;;;;14.72;59.72;102010.03;697465;28;90782;-62
2021/06/14 00:25:58;;;;;;;5.05;4.40;;;;;;;14.70;59.77;102012.09;697902;28;44346;-62
2021/06/14 00:26:21;;;;;;;4.60;4.20;;;;;;;14.69;59.47;102006.81;694432;28;69474;-62
2021/06/14 00:26:42;;;;;;;7.00;3.92;;;;;;;14.70;59.59;102005.78;694789;28;69692;-63
2021/06/14 00:27:04;;;;;;;6.03;4.15;;;;;;;14.71;59.62;102015.66;697161;28;17441;-63
2021/06/14 00:27:25;;;;;;;6.05;4.35;;;;;;;14.69;59.53;102012.25;697441;28;9701;-63
2021/06/14 00:27:47;;;;;;;4.32;3.90;;;;;;;14.68;59.94;102011.41;698119;28;22391;-62
2021/06/14 00:28:09;;;;;;;5.43;4.10;;;;;;;14.69;59.80;102007.66;700238;28;46342;-63
2021/06/14 00:28:31;;;;;;;6.72;4.55;;;;;;;14.69;59.55;102009.53;697915;28;67492;-63
2021/06/14 00:28:52;;;;;;;5.97;4.22;;;;;;;14.67;59.92;102009.72;699857;28;22408;-63
2021/06/14 00:29:13;;;;;;;5.70;4.05;;;;;;;14.68;59.97;102016.84;699076;28;23449;-63
2021/06/14 00:29:34;;;;;;;4.55;4.15;;;;;;;14.67;59.44;102012.44;699096;28;22613;-62
2021/06/14 00:29:56;;;;;;;5.68;4.20;;;;;;;14.67;59.72;102007.00;699351;28;23479;-62
2021/06/14 00:30:22;;;;;;;7.55;4.60;;;;;;;14.66;59.61;102010.72;698448;28;46397;-63
2021/06/14 00:30:46;;;;;;;6.70;4.15;;;;;;;14.67;59.67;102009.72;694506;28;157837;-62
2021/06/14 00:31:08;;;;;;;6.53;4.13;;;;;;;14.67;59.45;102012.44;697511;28;70344;-62
2021/06/14 00:31:30;;;;;;;7.20;4.80;;;;;;;14.66;59.80;102008.00;698787;28;44376;-62
2021/06/14 00:31:51;;;;;;;5.63;4.07;;;;;;;14.66;59.67;102012.59;698069;28;45111;-62
2021/06/14 00:32:12;;;;;;;6.05;4.30;;;;;;;14.65;59.50;102010.91;698892;28;22385;-62
2021/06/14 00:32:34;;;;;;;5.15;4.28;;;;;;;14.64;59.53;102006.47;699149;28;22098;-63
2021/06/14 00:32:56;;;;;;;6.28;4.32;;;;;;;14.61;59.74;101999.53;699929;28;20856;-62
2021/06/14 00:33:18;;;;;;;6.40;4.60;;;;;;;14.61;60.12;102002.25;698038;28;63334;-63
2021/06/14 00:33:40;;;;;;;5.88;4.00;;;;;;;14.59;60.03;102007.81;698204;28;46373;-63
2021/06/14 00:34:01;;;;;;;7.88;4.20;;;;;;;14.59;59.53;101999.69;697946;28;69462;-62
2021/06/14 00:34:22;;;;;;;10.40;4.53;;;;;;;14.58;59.75;102005.28;699431;28;21528;-61
2021/06/14 00:34:44;;;;;;;6.28;4.40;;;;;;;14.57;60.17;102000.84;699779;28;22397;-63
2021/06/14 00:35:06;;;;;;;6.03;4.10;;;;;;;14.56;59.97;102001.88;698641;28;45333;-63
2021/06/14 00:35:27;;;;;;;5.80;4.05;;;;;;;14.54;59.97;101999.31;698195;28;44357;-62
2021/06/14 00:35:49;;;;;;;5.75;4.07;;;;;;;14.55;60.13;102001.03;698681;28;35031;-63
2021/06/14 00:36:11;;;;;;;5.38;4.47;;;;;;;14.54;59.68;102002.03;699501;28;23510;-63
2021/06/14 00:36:32;;;;;;;5.55;4.60;;;;;;;14.54;59.89;102003.91;699050;28;46292;-63
2021/06/14 00:36:54;;;;;;;5.57;4.28;;;;;;;14.54;59.79;102006.63;698420;28;23367;-63
2021/06/14 00:37:15;;;;;;;6.78;4.50;;;;;;;14.54;60.17;102001.19;698821;28;37895;-63
2021/06/14 00:37:38;;;;;;;6.18;4.30;;;;;;;14.53;60.12;102010.38;698610;28;20930;-63
2021/06/14 00:37:59;;;;;;;5.72;4.20;;;;;;;14.54;60.02;101996.59;697580;28;45237;-63
2021/06/14 00:38:21;;;;;;;7.97;4.75;;;;;;;14.53;60.03;102003.09;699377;28;18415;-62
2021/06/14 00:38:42;;;;;;;7.30;4.43;;;;;;;14.53;60.12;102004.94;698640;28;23722;-63
2021/06/14 00:39:04;;;;;;;6.10;4.45;;;;;;;14.51;60.20;101999.66;699124;28;22212;-63
2021/06/14 00:39:26;;;;;;;7.32;5.22;;;;;;;14.52;60.33;102003.25;694248;28;70729;-63
2021/06/14 00:39:47;;;;;;;8.02;5.07;;;;;;;14.50;59.97;102002.56;696111;28;46569;-63
2021/06/14 00:40:09;;;;;;;6.60;4.47;;;;;;;14.49;60.40;102003.59;695977;28;17122;-63
2021/06/14 00:40:32;;;;;;;8.43;4.50;;;;;;;14.48;60.07;102005.47;692030;28;46852;-63
2021/06/14 00:40:54;;;;;;;8.07;4.63;;;;;;;14.48;60.48;101999.16;692952;28;47844;-62
2021/06/14 00:41:15;;;;;;;6.40;4.65;;;;;;;14.48;60.05;101999.16;693557;28;33312;-62
2021/06/14 00:41:39;;;;;;;7.57;4.75;;;;;;;14.46;60.53;102002.06;694371;28;69321;-63
2021/06/14 00:42:01;;;;;;;5.63;4.47;;;;;;;14.47;60.41;102002.94;693710;28;44434;-63
2021/06/14 00:42:23;;;;;;;6.28;4.30;;;;;;;14.47;60.54;102002.94;696018;28;45269;-63
2021/06/14 00:42:45;;;;;;;7.63;4.75;;;;;;;14.47;60.01;102002.94;698450;28;26324;-63
2021/06/14 00:43:07;;;;;;;7.97;4.85;;;;;;;14.47;60.38;101998.34;698516;28;44650;-63
2021/06/14 00:43:28;;;;;;;5.82;4.15;;;;;;;14.47;60.07;102005.66;698763;28;30294;-62
2021/06/14 00:43:50;;;;;;;6.30;4.05;;;;;;;14.47;60.34;102001.06;699216;28;22422;-63
2021/06/14 00:44:11;;;;;;;6.80;4.03;;;;;;;14.46;60.34;101995.78;701092;28;47654;-63
2021/06/14 00:44:33;;;;;;;7.75;4.40;;;;;;;14.45;60.29;102000.38;701330;28;22786;-61
2021/06/14 00:44:55;;;;;;;6.35;4.55;;;;;;;14.45;60.56;101994.06;700708;28;1245;-63
2021/06/14 00:45:30;;;;;;;8.85;4.90;;;;;;;14.43;60.54;102002.41;699379;28;61014;-63
2021/06/14 00:45:53;;;;;;;6.65;4.82;;;;;;;14.42;60.56;101996.13;693228;28;138452;-62
2021/06/14 00:46:14;;;;;;;8.93;5.30;;;;;;;14.42;60.34;102006.16;695989;28;57293;-65
2021/06/14 00:46:36;;;;;;;8.35;5.28;;;;;;;14.40;60.18;102006.34;697902;28;21536;-62
2021/06/14 00:46:57;;;;;;;5.78;4.53;;;;;;;14.39;60.42;101999.19;698489;28;23429;-62
2021/06/14 00:47:18;;;;;;;5.28;4.43;;;;;;;14.38;60.51;102005.63;698428;28;46428;-62
2021/06/14 00:47:40;;;;;;;6.47;4.40;;;;;;;14.37;60.42;101995.81;699351;28;23428;-62
2021/06/14 00:48:03;;;;;;;6.18;4.53;;;;;;;14.36;60.44;102002.25;698545;28;46266;-63
2021/06/14 00:48:25;;;;;;;5.55;4.53;;;;;;;14.36;60.26;101995.97;696118;28;92315;-62
2021/06/14 00:48:49;;;;;;;6.22;4.72;;;;;;;14.35;60.74;102002.41;698322;28;47672;-63
2021/06/14 00:49:11;;;;;;;8.20;4.32;;;;;;;14.34;60.59;101998.00;697686;28;69487;-63
2021/06/14 00:49:32;;;;;;;8.80;4.85;;;;;;;14.31;60.82;101993.78;697711;28;46350;-63
2021/06/14 00:49:54;;;;;;;7.57;4.72;;;;;;;14.30;60.90;101992.06;700167;28;889;-63
2021/06/14 00:50:19;;;;;;;7.75;4.50;;;;;;;14.29;60.65;101990.34;699846;28;16822;-62
2021/06/14 00:50:44;;;;;;;7.38;5.10;;;;;;;14.28;60.65;101994.09;695024;28;137997;-63
2021/06/14 00:51:07;;;;;;;8.02;4.63;;;;;;;14.28;60.88;101991.38;692857;28;116194;-62
2021/06/14 00:51:29;;;;;;;6.93;4.80;;;;;;;14.28;61.10;101995.97;692980;28;68255;-62
2021/06/14 00:51:50;;;;;;;9.75;5.32;;;;;;;14.27;60.97;101995.13;692904;28;23367;-63
2021/06/14 00:52:15;;;;;;;7.85;4.63;;;;;;;14.25;60.96;101989.00;693472;28;21521;-62
2021/06/14 00:52:37;;;;;;;8.30;4.80;;;;;;;14.26;61.00;101998.84;689738;28;136156;-63
2021/06/14 00:52:58;;;;;;;5.72;4.57;;;;;;;14.25;61.14;101991.72;693317;28;23416;-63
2021/06/14 00:53:21;;;;;;;7.20;4.90;;;;;;;14.26;60.61;101996.13;695782;28;23409;-62
2021/06/14 00:53:55;;;;;;;9.40;4.75;;;;;;;14.25;60.98;101989.00;693977;28;90664;-62
2021/06/14 00:54:16;;;;;;;7.20;4.88;;;;;;;14.25;61.12;101994.44;692142;28;137813;-63
2021/06/14 00:54:38;;;;;;;8.07;4.53;;;;;;;14.23;61.18;101994.63;693201;28;47331;-63
2021/06/14 00:54:59;;;;;;;9.55;4.25;;;;;;;14.24;61.07;101992.75;693630;28;1061;-63
2021/06/14 00:55:22;;;;;;;7.50;4.30;;;;;;;14.23;61.08;101991.03;690938;28;46211;-62
2021/06/14 00:55:44;;;;;;;6.90;4.45;;;;;;;14.22;61.13;101994.78;690668;28;69524;-62
2021/06/14 00:56:07;;;;;;;5.65;4.35;;;;;;;14.19;61.11;101995.97;692887;28;18274;-63
2021/06/14 00:56:31;;;;;;;5.82;4.53;;;;;;;14.18;61.16;101994.25;691103;28;88545;-62
2021/06/14 00:56:53;;;;;;;7.75;4.50;;;;;;;14.19;61.07;101997.84;694266;28;69436;-63
2021/06/14 00:57:14;;;;;;;6.18;4.38;;;;;;;14.17;61.11;101998.00;696775;28;46439;-63
2021/06/14 00:57:35;;;;;;;7.20;4.45;;;;;;;14.19;61.26;101995.13;695890;28;22508;-63
2021/06/14 00:57:57;;;;;;;7.25;4.55;;;;;;;14.17;60.99;101998.00;693507;28;9439;-63
2021/06/14 00:58:18;;;;;;;7.20;5.00;;;;;;;14.18;61.28;101999.69;694145;28;21514;-62
2021/06/14 00:58:41;;;;;;;7.22;4.60;;;;;;;14.16;61.29;101993.59;694608;28;46383;-62
2021/06/14 00:59:02;;;;;;;9.15;4.53;;;;;;;14.18;61.03;101996.13;694861;28;67487;-62
2021/06/14 00:59:25;;;;;;;8.43;5.13;;;;;;;14.17;61.18;102000.72;693480;28;46317;-62
2021/06/14 00:59:46;;;;;;;8.80;5.30;;;;;;;14.16;61.20;102001.75;695510;28;46444;-63
2021/06/14 01:00:16;;;;;;;7.00;4.50;;;;;;;14.17;61.40;101994.44;694265;28;138662;-62
2021/06/14 01:00:46;;;;;;;6.88;4.75;;;;;;;14.18;61.10;101988.00;689331;28;128758;-63
2021/06/14 01:01:09;;;;;;;6.68;4.38;;;;;;;14.19;61.04;102000.56;689940;28;92401;-63
2021/06/14 01:01:30;;;;;;;6.90;4.03;;;;;;;14.19;60.97;101995.13;697075;28;23446;-63
2021/06/14 01:01:55;;;;;;;5.57;4.22;;;;;;;14.18;61.08;101988.81;691311;28;115120;-62
2021/06/14 01:02:18;;;;;;;7.15;4.22;;;;;;;14.18;61.41;101996.13;695221;28;22332;-63
2021/06/14 01:02:39;;;;;;;7.20;4.18;;;;;;;14.19;60.91;101986.97;694957;28;45215;-62
2021/06/14 01:03:00;;;;;;;5.88;4.47;;;;;;;14.19;61.25;101992.41;697464;28;22390;-63
2021/06/14 01:03:21;;;;;;;5.82;4.57;;;;;;;14.18;61.39;101985.28;697807;28;47385;-63
2021/06/14 01:03:44;;;;;;;7.13;5.07;;;;;;;14.20;61.10;101994.97;699461;28;22411;-62
2021/06/14 01:04:05;;;;;;;8.18;4.60;;;;;;;14.20;60.90;101989.53;698762;28;46366;-62
2021/06/14 01:04:27;;;;;;;6.22;4.35;;;;;;;14.22;61.32;101992.06;697569;28;69543;-62
2021/06/14 01:04:48;;;;;;;5.55;3.88;;;;;;;14.20;60.94;101994.97;699064;28;45282;-63
2021/06/14 01:05:11;;;;;;;7.72;4.32;;;;;;;14.20;61.00;101988.66;699330;28;23565;-63
2021/06/14 01:05:36;;;;;;;8.93;4.82;;;;;;;14.18;61.06;101996.97;697417;28;67314;-63
2021/06/14 01:06:00;;;;;;;6.85;4.28;;;;;;;14.17;61.12;101989.88;691995;28;113647;-63
2021/06/14 01:06:23;;;;;;;5.28;4.50;;;;;;;14.16;61.49;101996.31;687588;28;113627;-62
2021/06/14 01:06:47;;;;;;;5.63;4.57;;;;;;;14.16;61.18;101992.75;690770;28;22421;-63
2021/06/14 01:07:08;;;;;;;6.07;4.47;;;;;;;14.15;61.14;101989.19;688579;28;91484;-62
2021/06/14 01:07:30;;;;;;;7.88;4.82;;;;;;;14.16;61.40;101990.03;688794;28;60258;-63
2021/06/14 01:07:52;;;;;;;6.55;4.15;;;;;;;14.18;61.42;101988.00;689531;28;46397;-63
2021/06/14 01:08:15;;;;;;;5.70;4.55;;;;;;;14.17;61.34;101986.28;692357;28;44388;-63
2021/06/14 01:08:39;;;;;;;5.88;4.55;;;;;;;14.17;60.92;101984.44;696318;28;23265;-63
2021/06/14 01:09:00;;;;;;;6.35;4.43;;;;;;;14.17;61.04;101986.28;694256;28;93187;-63
2021/06/14 01:09:22;;;;;;;7.43;4.30;;;;;;;14.17;60.98;101979.00;695043;28;45345;-62
2021/06/14 01:09:43;;;;;;;8.67;4.30;;;;;;;14.18;61.18;101993.41;694824;28;40198;-62
2021/06/14 01:10:06;;;;;;;7.18;4.15;;;;;;;14.18;61.24;101980.69;695603;28;46833;-62
2021/06/14 01:10:27;;;;;;;7.13;4.50;;;;;;;14.19;60.68;101984.25;695123;28;46358;-63
2021/06/14 01:10:50;;;;;;;6.43;4.32;;;;;;;14.20;60.60;101983.22;691963;28;46337;-61
2021/06/14 01:11:19;;;;;;;6.22;4.25;;;;;;;14.19;60.58;101982.38;692134;28;92226;-63
2021/06/14 01:11:46;;;;;;;6.45;4.53;;;;;;;14.19;60.77;101986.97;693294;28;137952;-62
2021/06/14 01:12:12;;;;;;;5.35;4.38;;;;;;;14.18;60.62;101977.97;695273;28;138989;-63
2021/06/14 01:12:46;;;;;;;6.10;4.35;;;;;;;14.17;61.01;101976.28;694597;28;138007;-63
2021/06/14 01:13:20;;;;;;;7.63;4.47;;;;;;;14.17;61.14;101981.72;693627;28;137756;-63
2021/06/14 01:13:47;;;;;;;6.07;4.25;;;;;;;14.17;61.10;101984.44;694904;28;136110;-63
2021/06/14 01:14:14;;;;;;;5.00;4.50;;;;;;;14.16;60.80;101984.59;692030;28;132832;-62
2021/06/14 01:14:40;;;;;;;5.68;4.20;;;;;;;14.14;61.21;101973.91;690024;28;112856;-63
2021/06/14 01:15:05;;;;;;;6.05;3.95;;;;;;;14.13;60.90;101974.06;692176;28;109167;-63
2021/06/14 01:15:29;;;;;;;4.85;4.10;;;;;;;14.13;61.17;101977.63;692177;28;138290;-62
2021/06/14 01:15:59;;;;;;;4.97;3.95;;;;;;;14.12;61.15;101985.94;691000;28;91027;-63
2021/06/14 01:16:25;;;;;;;8.13;4.85;;;;;;;14.10;60.87;101982.56;693588;28;107989;-63
2021/06/14 01:16:55;;;;;;;7.60;4.50;;;;;;;14.10;61.41;101985.28;690134;28;131560;-62
2021/06/14 01:17:21;;;;;;;7.40;4.55;;;;;;;14.08;61.32;101987.31;689724;28;91243;-63
2021/06/14 01:17:49;;;;;;;5.55;4.65;;;;;;;14.08;61.35;101981.91;690131;28;136099;-61
2021/06/14 01:18:14;;;;;;;6.93;4.30;;;;;;;14.07;61.03;101989.16;692525;28;122653;-63
2021/06/14 01:18:40;;;;;;;7.43;4.75;;;;;;;14.06;61.28;101990.22;694832;28;67485;-63
2021/06/14 01:19:05;;;;;;;6.05;4.07;;;;;;;14.05;61.08;101989.34;692268;28;137841;-62
2021/06/14 01:20:00;;;;;;;5.80;4.22;;;;;;;14.05;61.28;101975.75;694704;28;115036;-63
2021/06/14 01:20:41;;;;;;;6.22;4.30;;;;;;;14.03;61.50;101976.97;695111;28;138549;-63
2021/06/14 01:21:10;;;;;;;5.90;4.50;;;;;;;14.02;61.09;101981.53;694030;28;81275;-63
2021/06/14 01:21:34;;;;;;;6.85;4.43;;;;;;;14.02;61.45;101984.25;695125;28;129584;-62
2021/06/14 01:22:08;;;;;;;5.32;4.25;;;;;;;14.02;61.48;101975.25;693964;28;115104;-63
2021/06/14 01:22:53;;;;;;;7.43;4.35;;;;;;;14.03;61.06;101975.09;689012;28;137708;-63
2021/06/14 01:23:54;;;;;;;8.10;4.75;;;;;;;14.02;61.25;101975.25;683031;28;130156;-63
2021/06/14 01:24:40;;;;;;;6.10;4.47;;;;;;;14.00;61.19;101986.28;693819;28;138051;-62
2021/06/14 01:25:07;;;;;;;8.27;5.15;;;;;;;14.00;61.11;101969.16;694873;28;138294;-63
2021/06/14 01:25:34;;;;;;;8.65;4.90;;;;;;;13.99;61.44;101981.88;694743;28;138321;-63
2021/06/14 01:25:59;;;;;;;8.02;4.93;;;;;;;13.96;61.23;101974.06;695143;28;128125;-63
2021/06/14 01:26:22;;;;;;;7.00;4.78;;;;;;;13.95;61.17;101975.09;698446;28;31231;-63
2021/06/14 01:26:46;;;;;;;8.82;4.80;;;;;;;13.95;61.51;101979.66;697540;28;69450;-63
2021/06/14 01:27:36;;;;;;;6.18;4.45;;;;;;;13.94;61.28;101976.09;697487;28;61723;-62
2021/06/14 01:27:58;;;;;;;8.23;5.07;;;;;;;13.94;61.33;101980.69;695312;28;131298;-63
2021/06/14 01:28:21;;;;;;;5.72;4.90;;;;;;;13.93;61.54;101979.00;697684;28;46593;-62
2021/06/14 01:28:44;;;;;;;6.78;5.07;;;;;;;13.94;61.74;101977.97;697541;28;81179;-63
2021/06/14 01:29:12;;;;;;;7.70;4.45;;;;;;;13.92;61.65;101975.44;692236;28;137567;-63
2021/06/14 01:29:35;;;;;;;6.90;4.78;;;;;;;13.93;61.59;101973.56;693955;28;57074;-63
2021/06/14 01:29:58;;;;;;;5.95;4.40;;;;;;;13.91;61.37;101978.31;691351;28;81172;-63
2021/06/14 01:30:22;;;;;;;6.15;4.60;;;;;;;13.92;61.48;101977.28;693555;28;39151;-63
2021/06/14 01:30:47;;;;;;;6.32;4.57;;;;;;;13.91;61.68;101973.72;691942;28;113284;-63
2021/06/14 01:31:13;;;;;;;4.90;4.13;;;;;;;13.87;61.66;101962.34;694089;28;156651;-63
2021/06/14 01:31:36;;;;;;;6.60;4.43;;;;;;;13.90;61.44;101971.19;695169;28;46834;-63
2021/06/14 01:31:58;;;;;;;5.18;4.60;;;;;;;13.89;61.73;101964.91;694656;28;69427;-63
2021/06/14 01:32:21;;;;;;;5.72;4.55;;;;;;;13.89;61.28;101975.78;694896;28;45214;-63
2021/06/14 01:32:43;;;;;;;7.18;4.47;;;;;;;13.90;61.77;101974.72;695476;28;44402;-62
2021/06/14 01:33:07;;;;;;;9.23;4.57;;;;;;;13.88;61.38;101972.19;693639;28;69557;-63
2021/06/14 01:33:30;;;;;;;7.13;4.40;;;;;;;13.87;61.36;101975.06;693016;28;91720;-63
2021/06/14 01:33:53;;;;;;;5.95;4.40;;;;;;;13.87;61.37;101965.06;694771;28;67471;-63
2021/06/14 01:34:14;;;;;;;8.10;4.32;;;;;;;13.88;61.61;101972.19;691768;28;69408;-63
2021/06/14 01:34:39;;;;;;;6.82;4.43;;;;;;;13.86;61.47;101968.78;691828;28;46267;-63
2021/06/14 01:35:01;;;;;;;6.22;4.50;;;;;;;13.88;61.64;101965.91;691547;28;92297;-63
2021/06/14 01:35:33;;;;;;;5.60;4.28;;;;;;;13.87;61.55;101970.50;694271;28;44247;-63
2021/06/14 01:35:57;;;;;;;5.20;3.85;;;;;;;13.87;61.44;101977.78;689143;28;137728;-63
2021/06/14 01:36:22;;;;;;;7.10;4.82;;;;;;;13.86;61.67;101976.94;692257;28;113916;-63
2021/06/14 01:36:46;;;;;;;6.38;4.45;;;;;;;13.84;61.76;101970.84;692928;28;121759;-63
2021/06/14 01:37:08;;;;;;;6.38;4.40;;;;;;;13.81;61.50;101975.78;695539;28;46385;-63
2021/06/14 01:37:33;;;;;;;9.07;4.57;;;;;;;13.82;61.86;101974.72;692464;28;136525;-63
2021/06/14 01:37:56;;;;;;;7.53;4.40;;;;;;;13.81;61.81;101967.63;691630;28;58308;-63
2021/06/14 01:38:19;;;;;;;7.75;4.88;;;;;;;13.82;61.44;101972.88;690129;28;69396;-63
2021/06/14 01:38:45;;;;;;;7.32;5.50;;;;;;;13.84;61.88;101969.97;688653;28;115994;-63
2021/06/14 01:39:10;;;;;;;7.35;4.60;;;;;;;13.79;61.39;101967.78;687950;28;137383;-63
2021/06/14 01:39:37;;;;;;;7.75;4.82;;;;;;;13.80;61.45;101964.03;684455;28;92728;-63
2021/06/14 01:40:02;;;;;;;5.93;4.45;;;;;;;13.82;61.83;101963.88;687019;28;118545;-63
2021/06/14 01:40:26;;;;;;;6.03;4.18;;;;;;;13.80;61.95;101964.03;688253;28;138217;-63
2021/06/14 01:40:51;;;;;;;5.85;3.97;;;;;;;13.80;61.73;101964.03;693644;28;46364;-63
2021/06/14 01:41:13;;;;;;;5.15;4.25;;;;;;;13.79;61.62;101972.34;690955;28;115896;-62
2021/06/14 01:41:35;;;;;;;5.20;4.20;;;;;;;13.78;61.92;101973.41;693659;28;44377;-63
2021/06/14 01:42:03;;;;;;;5.30;3.83;;;;;;;13.77;61.93;101967.09;690507;28;138413;-63
2021/06/14 01:42:27;;;;;;;5.03;3.60;;;;;;;13.77;61.79;101968.97;693540;28;46292;-63
2021/06/14 01:42:50;;;;;;;5.80;3.85;;;;;;;13.77;61.75;101964.38;692521;28;92264;-63
2021/06/14 01:43:14;;;;;;;5.80;4.05;;;;;;;13.78;61.58;101967.97;694794;28;67349;-63
2021/06/14 01:43:38;;;;;;;4.45;4.00;;;;;;;13.77;61.94;101967.09;695600;28;115128;-62
2021/06/14 01:44:01;;;;;;;4.40;4.00;;;;;;;13.78;61.59;101966.09;695858;28;90481;-62
2021/06/14 01:44:24;;;;;;;5.65;4.53;;;;;;;13.77;61.76;101974.41;698815;28;46315;-63
2021/06/14 01:44:48;;;;;;;6.18;4.10;;;;;;;13.76;62.08;101964.53;694396;28;90724;-63
2021/06/14 01:45:11;;;;;;;4.45;3.90;;;;;;;13.77;62.03;101961.66;692596;28;90786;-63
2021/06/14 01:45:33;;;;;;;6.35;4.10;;;;;;;13.77;61.55;101968.97;690551;28;44429;-63
2021/06/14 01:45:57;;;;;;;6.55;4.07;;;;;;;13.78;61.53;101966.09;691829;28;44375;-63
2021/06/14 01:46:21;;;;;;;4.57;3.92;;;;;;;13.78;61.51;101968.81;691604;28;20095;-63
2021/06/14 01:46:46;;;;;;;7.77;4.10;;;;;;;13.77;61.89;101961.66;687795;28;137363;-63
2021/06/14 01:47:08;;;;;;;7.07;4.10;;;;;;;13.78;62.01;101970.69;692319;28;69633;-63
2021/06/14 01:47:29;;;;;;;5.75;3.85;;;;;;;13.76;61.81;101964.53;696142;28;45225;-63
2021/06/14 01:47:51;;;;;;;5.68;3.75;;;;;;;13.77;61.80;101966.25;694674;28;22378;-61
2021/06/14 01:48:13;;;;;;;4.63;3.95;;;;;;;13.76;61.71;101965.41;695099;28;45263;-62
2021/06/14 01:48:38;;;;;;;5.72;4.05;;;;;;;13.76;61.77;101961.81;695231;28;93034;-63
2021/06/14 01:49:01;;;;;;;6.88;4.13;;;;;;;13.76;61.95;101964.53;695987;28;92238;-63
2021/06/14 01:49:23;;;;;;;7.50;4.20;;;;;;;13.76;61.98;101961.81;695185;28;46369;-62
2021/06/14 01:49:51;;;;;;;5.53;3.95;;;;;;;13.77;61.85;101960.81;693938;28;120019;-63
2021/06/14 01:50:20;;;;;;;5.07;3.60;;;;;;;13.77;61.89;101955.38;694222;28;137214;-63
2021/06/14 01:50:41;;;;;;;7.03;3.92;;;;;;;13.78;61.87;101965.25;694794;28;57164;-63
2021/06/14 01:51:04;;;;;;;4.57;3.67;;;;;;;13.78;61.73;101957.94;692918;28;22480;-63